KLM57K EHAM-TNCC
Flight info
| Callsign | KLM57K |
|---|---|
| Flight time | N/A |
| Altitude | 32000 |
| Route | BERGI L60 PENIL M144 BAGSO DCT GIMRO DCT LIMRI/M084F340 DCT 52N020W 51N030W 49N040W 47N050W DCT PORTI DCT LOMPI M202 JEBBY/M084F360 DCT 40N060W DCT BDA DCT GECAL L458 CHEDR/N0491F360 L458 THANK DCT SCAPA SCAPA1B |
| Aircraft | B77W/H-SDE1E2E3FGHIJ2J3J4J5M1RWXY/LB1D1 |
Departure
| Time | 2026-05-08 07:31 |
|---|---|
| Airport | Amsterdam Airport Schiphol (EHAM) |
Arrival
| Time | N/A |
|---|---|
| Airport | Hato International Airport (TNCC) |
| Time | Latitude | Longitude | Altitude | Speed | Heading |
|---|---|---|---|---|---|
| 2026-05-08 06:55 | 52.31150 | 4.76513 | 4 ft | 0 kts | 124° |
| 2026-05-08 07:02 | 52.31148 | 4.76520 | 5 ft | 0 kts | 124° |
| 2026-05-08 07:20 | 52.31150 | 4.76513 | 5 ft | 2 kts | 123° |
| 2026-05-08 07:21 | 52.31159 | 4.76490 | 6 ft | 2 kts | 117° |
| 2026-05-08 07:21 | 52.31165 | 4.76465 | 6 ft | 2 kts | 102° |
| 2026-05-08 07:21 | 52.31167 | 4.76438 | 7 ft | 2 kts | 58° |
| 2026-05-08 07:21 | 52.31155 | 4.76420 | 8 ft | 2 kts | 17° |
| 2026-05-08 07:22 | 52.31150 | 4.76418 | 8 ft | 0 kts | 7° |
| 2026-05-08 07:23 | 52.31153 | 4.76418 | 5 ft | 3 kts | 7° |
| 2026-05-08 07:23 | 52.31192 | 4.76427 | 5 ft | 7 kts | 7° |
| 2026-05-08 07:24 | 52.31243 | 4.76439 | 5 ft | 9 kts | 9° |
| 2026-05-08 07:24 | 52.31321 | 4.76437 | 5 ft | 13 kts | 351° |
| 2026-05-08 07:24 | 52.31423 | 4.76393 | 5 ft | 18 kts | 344° |
| 2026-05-08 07:24 | 52.31529 | 4.76277 | 5 ft | 22 kts | 296° |
| 2026-05-08 07:25 | 52.31530 | 4.76008 | 5 ft | 26 kts | 266° |
| 2026-05-08 07:25 | 52.31519 | 4.75645 | 5 ft | 35 kts | 266° |
| 2026-05-08 07:25 | 52.31492 | 4.74886 | 5 ft | 32 kts | 266° |
| 2026-05-08 07:26 | 52.31481 | 4.74534 | 5 ft | 30 kts | 267° |
| 2026-05-08 07:26 | 52.31469 | 4.74276 | 5 ft | 18 kts | 259° |
| 2026-05-08 07:26 | 52.31402 | 4.74148 | 5 ft | 13 kts | 199° |
| 2026-05-08 07:26 | 52.31274 | 4.74127 | 5 ft | 25 kts | 183° |
| 2026-05-08 07:27 | 52.31111 | 4.74114 | 5 ft | 23 kts | 183° |
| 2026-05-08 07:27 | 52.30924 | 4.74097 | 5 ft | 35 kts | 184° |
| 2026-05-08 07:27 | 52.30690 | 4.74076 | 5 ft | 32 kts | 183° |
| 2026-05-08 07:27 | 52.30540 | 4.74062 | 5 ft | 19 kts | 184° |
| 2026-05-08 07:28 | 52.30425 | 4.74052 | 5 ft | 16 kts | 182° |
| 2026-05-08 07:28 | 52.30330 | 4.74015 | 5 ft | 13 kts | 202° |
| 2026-05-08 07:28 | 52.30252 | 4.73949 | 5 ft | 13 kts | 214° |
| 2026-05-08 07:28 | 52.30226 | 4.73919 | 4 ft | 8 kts | 216° |
| 2026-05-08 07:29 | 52.30190 | 4.73794 | 4 ft | 11 kts | 284° |
| 2026-05-08 07:29 | 52.30229 | 4.73742 | 3 ft | 5 kts | 347° |
| 2026-05-08 07:29 | 52.30239 | 4.73742 | 3 ft | 0 kts | 1° |
| 2026-05-08 07:30 | 52.30274 | 4.73744 | 2 ft | 16 kts | 2° |
| 2026-05-08 07:31 | 52.30557 | 4.73773 | 3 ft | 74 kts | 4° |
| 2026-05-08 07:31 | 52.31284 | 4.73837 | 4 ft | 137 kts | 3° |
| 2026-05-08 07:31 | 52.32426 | 4.73937 | 34 ft | 188 kts | 4° |
| 2026-05-08 07:31 | 52.33661 | 4.73979 | 1019 ft | 167 kts | 2° |
| 2026-05-08 07:32 | 52.34757 | 4.73981 | 1772 ft | 161 kts | 1° |
| 2026-05-08 07:32 | 52.35926 | 4.73961 | 2106 ft | 174 kts | 1° |
| 2026-05-08 07:32 | 52.37202 | 4.73285 | 2032 ft | 221 kts | 320° |
| 2026-05-08 07:32 | 52.38256 | 4.71139 | 2185 ft | 260 kts | 308° |
| 2026-05-08 07:33 | 52.39434 | 4.68938 | 3213 ft | 259 kts | 316° |
| 2026-05-08 07:33 | 52.40853 | 4.67081 | 4216 ft | 262 kts | 329° |
| 2026-05-08 07:33 | 52.42447 | 4.65682 | 5176 ft | 266 kts | 334° |
| 2026-05-08 07:33 | 52.44111 | 4.64313 | 6147 ft | 270 kts | 332° |
| 2026-05-08 07:34 | 52.45769 | 4.62807 | 7068 ft | 274 kts | 330° |
| 2026-05-08 07:34 | 52.47434 | 4.61239 | 7946 ft | 278 kts | 330° |
| 2026-05-08 07:34 | 52.49134 | 4.59668 | 8852 ft | 283 kts | 330° |
| 2026-05-08 07:34 | 52.50869 | 4.58086 | 9762 ft | 287 kts | 330° |
| 2026-05-08 07:35 | 52.52626 | 4.56477 | 10535 ft | 295 kts | 329° |
| 2026-05-08 07:35 | 52.54466 | 4.54778 | 11019 ft | 312 kts | 329° |
| 2026-05-08 07:35 | 52.56416 | 4.52980 | 11442 ft | 331 kts | 329° |
| 2026-05-08 07:35 | 52.58459 | 4.51099 | 11844 ft | 351 kts | 329° |
| 2026-05-08 07:36 | 52.60671 | 4.49062 | 12314 ft | 367 kts | 329° |
| 2026-05-08 07:36 | 52.62891 | 4.47010 | 13058 ft | 374 kts | 329° |
| 2026-05-08 07:36 | 52.65175 | 4.44897 | 13857 ft | 379 kts | 329° |
| 2026-05-08 07:36 | 52.67486 | 4.42756 | 14633 ft | 384 kts | 329° |
| 2026-05-08 07:37 | 52.69826 | 4.40588 | 15410 ft | 387 kts | 329° |
| 2026-05-08 07:37 | 52.72174 | 4.38385 | 16179 ft | 390 kts | 327° |
| 2026-05-08 07:37 | 52.74226 | 4.35484 | 16921 ft | 390 kts | 309° |
| 2026-05-08 07:37 | 52.75675 | 4.31715 | 17687 ft | 391 kts | 292° |
| 2026-05-08 07:38 | 52.76603 | 4.27488 | 18402 ft | 394 kts | 288° |
| 2026-05-08 07:38 | 52.77458 | 4.23236 | 19016 ft | 397 kts | 287° |
| 2026-05-08 07:38 | 52.78311 | 4.18878 | 19641 ft | 401 kts | 287° |
| 2026-05-08 07:38 | 52.79194 | 4.14484 | 20253 ft | 404 kts | 287° |
| 2026-05-08 07:39 | 52.80093 | 4.10062 | 20846 ft | 408 kts | 287° |
| 2026-05-08 07:39 | 52.80991 | 4.05593 | 21447 ft | 411 kts | 287° |
| 2026-05-08 07:39 | 52.81888 | 4.01077 | 22010 ft | 415 kts | 287° |
| 2026-05-08 07:39 | 52.82796 | 3.96514 | 22582 ft | 418 kts | 287° |
| 2026-05-08 07:40 | 52.83708 | 3.91938 | 23133 ft | 422 kts | 287° |
| 2026-05-08 07:40 | 52.84630 | 3.87301 | 23677 ft | 425 kts | 287° |
| 2026-05-08 07:40 | 52.85541 | 3.82694 | 24123 ft | 428 kts | 287° |
| 2026-05-08 07:40 | 52.86470 | 3.77986 | 24559 ft | 431 kts | 287° |
| 2026-05-08 07:41 | 52.87402 | 3.73258 | 24998 ft | 433 kts | 287° |
| 2026-05-08 07:41 | 52.88337 | 3.68500 | 25434 ft | 436 kts | 287° |
| 2026-05-08 07:41 | 52.89279 | 3.63698 | 25861 ft | 438 kts | 287° |
| 2026-05-08 07:41 | 52.89904 | 3.60505 | 26145 ft | 440 kts | 286° |
| 2026-05-08 07:42 | 52.90848 | 3.55666 | 26565 ft | 442 kts | 286° |
| 2026-05-08 07:42 | 52.92105 | 3.49212 | 27112 ft | 446 kts | 286° |
| 2026-05-08 07:42 | 52.93057 | 3.44306 | 27514 ft | 448 kts | 286° |
| 2026-05-08 07:42 | 52.93700 | 3.40987 | 27777 ft | 449 kts | 286° |
| 2026-05-08 07:43 | 52.94648 | 3.36081 | 28167 ft | 452 kts | 286° |
| 2026-05-08 07:43 | 52.95610 | 3.31087 | 28565 ft | 454 kts | 286° |
| 2026-05-08 07:43 | 52.96572 | 3.26082 | 28938 ft | 456 kts | 286° |
| 2026-05-08 07:43 | 52.97540 | 3.21035 | 29322 ft | 459 kts | 286° |
| 2026-05-08 07:44 | 52.98509 | 3.15969 | 29699 ft | 461 kts | 286° |
| 2026-05-08 07:44 | 52.99479 | 3.10882 | 30075 ft | 463 kts | 286° |
| 2026-05-08 07:44 | 53.00450 | 3.05775 | 30399 ft | 465 kts | 286° |
| 2026-05-08 07:44 | 53.01425 | 3.00636 | 30711 ft | 467 kts | 286° |
| 2026-05-08 07:45 | 53.02402 | 2.95470 | 31003 ft | 470 kts | 286° |
| 2026-05-08 07:45 | 53.03369 | 2.90344 | 31282 ft | 472 kts | 285° |
| 2026-05-08 07:45 | 53.04349 | 2.85135 | 31559 ft | 474 kts | 285° |
| 2026-05-08 07:45 | 53.05335 | 2.79877 | 31839 ft | 476 kts | 285° |
| 2026-05-08 07:46 | 53.06319 | 2.74618 | 32122 ft | 478 kts | 285° |
| 2026-05-08 07:46 | 53.07304 | 2.69338 | 32447 ft | 479 kts | 285° |
| 2026-05-08 07:46 | 53.08287 | 2.64054 | 32860 ft | 478 kts | 285° |
| 2026-05-08 07:46 | 53.09266 | 2.58779 | 33249 ft | 477 kts | 285° |
| 2026-05-08 07:47 | 53.10238 | 2.53517 | 33632 ft | 476 kts | 285° |
| 2026-05-08 07:47 | 53.11031 | 2.48182 | 34038 ft | 473 kts | 276° |
| 2026-05-08 07:47 | 53.11495 | 2.42744 | 34128 ft | 476 kts | 276° |
| 2026-05-08 07:48 | 53.12374 | 2.31943 | 34122 ft | 473 kts | 276° |
| 2026-05-08 07:48 | 53.13259 | 2.21078 | 34127 ft | 474 kts | 276° |
| 2026-05-08 07:49 | 53.14131 | 2.10205 | 34125 ft | 474 kts | 276° |
| 2026-05-08 07:49 | 53.14993 | 1.99337 | 34128 ft | 473 kts | 276° |
| 2026-05-08 07:50 | 53.15844 | 1.88479 | 34130 ft | 473 kts | 276° |
| 2026-05-08 07:50 | 53.16671 | 1.77811 | 34134 ft | 463 kts | 276° |
| 2026-05-08 07:51 | 53.17486 | 1.67136 | 34132 ft | 464 kts | 276° |
| 2026-05-08 07:51 | 53.18292 | 1.56481 | 34134 ft | 463 kts | 275° |
| 2026-05-08 07:52 | 53.19088 | 1.45822 | 34135 ft | 463 kts | 275° |
| 2026-05-08 07:52 | 53.19870 | 1.35227 | 34128 ft | 463 kts | 275° |
| 2026-05-08 07:53 | 53.20646 | 1.24568 | 34128 ft | 463 kts | 275° |
| 2026-05-08 07:53 | 53.21412 | 1.13910 | 34131 ft | 463 kts | 275° |
| 2026-05-08 07:54 | 53.22169 | 1.03255 | 34126 ft | 463 kts | 275° |
| 2026-05-08 07:54 | 53.22912 | 0.92659 | 34133 ft | 462 kts | 275° |
| 2026-05-08 07:55 | 53.23649 | 0.82001 | 34126 ft | 462 kts | 275° |
| 2026-05-08 07:55 | 53.24306 | 0.72383 | 34130 ft | 462 kts | 275° |
| 2026-05-08 07:56 | 53.25024 | 0.61728 | 34129 ft | 462 kts | 275° |
| 2026-05-08 07:56 | 53.25728 | 0.51153 | 34127 ft | 461 kts | 275° |
| 2026-05-08 07:57 | 53.26427 | 0.40503 | 34120 ft | 461 kts | 275° |
| 2026-05-08 07:57 | 53.27115 | 0.29865 | 34118 ft | 460 kts | 275° |
| 2026-05-08 07:58 | 53.27793 | 0.19236 | 34116 ft | 460 kts | 275° |
| 2026-05-08 07:58 | 53.28461 | 0.08617 | 34112 ft | 459 kts | 275° |
| 2026-05-08 07:59 | 53.29226 | -0.00833 | 34106 ft | 459 kts | 279° |
| 2026-05-08 07:59 | 53.30314 | -0.11368 | 34114 ft | 460 kts | 279° |
| 2026-05-08 08:00 | 53.31406 | -0.21915 | 34112 ft | 460 kts | 279° |
| 2026-05-08 08:00 | 53.32485 | -0.32476 | 34103 ft | 459 kts | 279° |
| 2026-05-08 08:01 | 53.33544 | -0.42922 | 34102 ft | 459 kts | 279° |
| 2026-05-08 08:01 | 53.34602 | -0.53455 | 34106 ft | 459 kts | 279° |
| 2026-05-08 08:02 | 53.35648 | -0.63977 | 34103 ft | 458 kts | 279° |
| 2026-05-08 08:02 | 53.36685 | -0.74485 | 34100 ft | 457 kts | 279° |
| 2026-05-08 08:03 | 53.37712 | -0.84988 | 34092 ft | 457 kts | 279° |
| 2026-05-08 08:03 | 53.38728 | -0.95491 | 34087 ft | 456 kts | 279° |
| 2026-05-08 08:04 | 53.39733 | -1.05978 | 34090 ft | 455 kts | 279° |
| 2026-05-08 08:04 | 53.40722 | -1.16391 | 34088 ft | 454 kts | 279° |
| 2026-05-08 08:05 | 53.41706 | -1.26862 | 34084 ft | 453 kts | 279° |
| 2026-05-08 08:05 | 53.42674 | -1.37284 | 34087 ft | 451 kts | 279° |
| 2026-05-08 08:06 | 53.43628 | -1.47632 | 34088 ft | 450 kts | 279° |
| 2026-05-08 08:06 | 53.44575 | -1.58012 | 34081 ft | 449 kts | 279° |
| 2026-05-08 08:07 | 53.45510 | -1.68363 | 34089 ft | 447 kts | 279° |
| 2026-05-08 08:07 | 53.46433 | -1.78686 | 34089 ft | 446 kts | 279° |
| 2026-05-08 08:08 | 53.47344 | -1.88981 | 34094 ft | 445 kts | 279° |
| 2026-05-08 08:08 | 53.48238 | -1.99185 | 34098 ft | 444 kts | 278° |
| 2026-05-08 08:09 | 53.49129 | -2.09458 | 34104 ft | 443 kts | 278° |
| 2026-05-08 08:09 | 53.50007 | -2.19689 | 34108 ft | 441 kts | 278° |
| 2026-05-08 08:10 | 53.50868 | -2.29831 | 34107 ft | 440 kts | 278° |
| 2026-05-08 08:10 | 53.51724 | -2.40011 | 34107 ft | 439 kts | 278° |
| 2026-05-08 08:11 | 53.52569 | -2.50173 | 34100 ft | 438 kts | 278° |
| 2026-05-08 08:11 | 53.53405 | -2.60325 | 34083 ft | 438 kts | 278° |